createdAt,value
2022-11-19T00:01:26.393Z,24.85
2022-11-19T00:03:54.499Z,16.52
2022-11-19T00:06:26.730Z,11.70
2022-11-19T00:08:54.208Z,17.80
2022-11-19T00:11:42.585Z,10.00
2022-11-19T00:14:12.673Z,10.63
2022-11-19T00:16:41.704Z,18.02
2022-11-19T00:19:10.856Z,15.48
2022-11-19T00:21:38.358Z,13.15
2022-11-19T00:24:06.093Z,24.50
2022-11-19T00:26:33.617Z,13.00
2022-11-19T00:29:00.856Z,18.75
2022-11-19T00:31:28.107Z,15.80
2022-11-19T00:33:55.381Z,18.23
2022-11-19T00:36:23.734Z,18.20
2022-11-19T00:38:51.041Z,12.13
2022-11-19T00:41:18.354Z,22.75
2022-11-19T00:43:49.379Z,13.18
2022-11-19T00:46:22.757Z,13.30
2022-11-19T00:48:51.475Z,8.45
2022-11-19T00:51:20.163Z,9.32
2022-11-19T00:53:47.658Z,11.50
2022-11-19T00:56:18.221Z,10.85
2022-11-19T00:58:46.322Z,15.00
2022-11-19T01:01:15.185Z,13.27
2022-11-19T01:03:45.622Z,14.68
2022-11-19T01:06:18.886Z,16.30
2022-11-19T01:08:51.354Z,20.50
2022-11-19T01:11:20.276Z,11.40
2022-11-19T01:13:48.159Z,11.55
2022-11-19T01:16:18.008Z,6.50
2022-11-19T01:18:47.445Z,14.80
2022-11-19T01:21:15.990Z,13.30
2022-11-19T01:23:44.193Z,32.47
2022-11-19T01:26:13.089Z,9.63
2022-11-19T01:28:41.188Z,26.75
2022-11-19T01:31:10.691Z,18.55
2022-11-19T01:33:38.407Z,16.10
2022-11-19T01:36:10.585Z,15.57
2022-11-19T01:38:37.854Z,16.65
2022-11-19T01:41:05.944Z,12.70
2022-11-19T01:43:48.682Z,12.35
2022-11-19T01:46:24.625Z,20.85
2022-11-19T01:49:08.251Z,17.23
2022-11-19T01:51:45.648Z,12.75
2022-11-19T01:54:21.491Z,24.45
2022-11-19T01:56:48.844Z,13.65
2022-11-19T01:59:18.795Z,13.40
2022-11-19T02:01:46.934Z,18.08
2022-11-19T02:04:16.508Z,20.55
2022-11-19T02:06:44.974Z,18.02
2022-11-19T02:09:12.262Z,14.38
2022-11-19T02:12:16.419Z,16.52
2022-11-19T02:15:00.988Z,18.90
2022-11-19T02:17:54.421Z,24.20
2022-11-19T02:20:44.666Z,18.10
2022-11-19T02:23:49.605Z,10.65
2022-11-19T02:26:22.833Z,19.02
2022-11-19T02:28:56.234Z,16.52
2022-11-19T02:31:31.028Z,15.15
2022-11-19T02:34:16.432Z,12.60
2022-11-19T02:37:06.096Z,22.60
2022-11-19T02:40:02.799Z,16.52
2022-11-19T02:42:36.227Z,23.17
2022-11-19T02:45:31.145Z,11.93
2022-11-19T02:48:19.651Z,13.18
2022-11-19T02:50:51.646Z,21.05
2022-11-19T02:53:19.170Z,10.07
2022-11-19T02:56:05.235Z,11.63
2022-11-19T02:58:51.988Z,15.95
2022-11-19T03:01:39.709Z,14.75
2022-11-19T03:06:55.405Z,15.15
2022-11-19T03:09:23.357Z,17.70
2022-11-19T03:11:58.346Z,16.70
2022-11-19T03:14:58.747Z,11.45
2022-11-19T03:17:48.233Z,18.75
2022-11-19T03:20:22.942Z,27.73
2022-11-19T03:23:10.748Z,15.13
2022-11-19T03:28:14.968Z,14.65
2022-11-19T03:30:45.416Z,20.85
2022-11-19T03:33:37.695Z,9.07
2022-11-19T03:36:10.752Z,14.05
2022-11-19T03:38:46.187Z,19.55
2022-11-19T03:41:17.295Z,18.08
2022-11-19T03:43:52.151Z,15.73
2022-11-19T03:46:22.653Z,8.38
2022-11-19T03:48:53.529Z,18.55
2022-11-19T03:51:28.740Z,24.98
2022-11-19T03:53:56.212Z,24.90
2022-11-19T03:56:26.107Z,17.63
2022-11-19T03:58:54.002Z,10.57
2022-11-19T04:01:21.987Z,13.15
2022-11-19T04:04:07.884Z,12.48
2022-11-19T04:06:35.109Z,10.95
2022-11-19T04:09:02.385Z,13.18
2022-11-19T04:11:29.698Z,16.60
2022-11-19T04:13:57.245Z,11.57
2022-11-19T04:16:24.503Z,15.13
2022-11-19T04:18:51.793Z,16.27
2022-11-19T04:21:19.155Z,19.40
2022-11-19T04:23:46.486Z,15.05
2022-11-19T04:26:13.737Z,23.80
2022-11-19T04:28:41.049Z,11.75
2022-11-19T04:31:08.260Z,14.55
2022-11-19T04:33:35.531Z,23.60
2022-11-19T04:36:02.822Z,9.25
2022-11-19T04:38:30.190Z,16.65
2022-11-19T04:40:57.480Z,17.60
2022-11-19T04:43:24.693Z,25.67
2022-11-19T04:45:52.051Z,12.45
2022-11-19T04:48:19.299Z,11.00
2022-11-19T04:50:46.519Z,17.38
2022-11-19T04:53:14.621Z,19.45
2022-11-19T04:55:42.084Z,14.68
2022-11-19T04:58:09.341Z,17.13
2022-11-19T05:00:36.629Z,13.93
2022-11-19T05:03:03.924Z,19.70
2022-11-19T05:05:31.164Z,23.55
2022-11-19T05:07:58.395Z,15.95
2022-11-19T05:10:25.698Z,12.55
2022-11-19T05:12:52.904Z,14.50
2022-11-19T05:15:20.133Z,21.60
2022-11-19T05:17:48.021Z,15.38
2022-11-19T05:20:15.769Z,19.20
2022-11-19T05:22:43.105Z,15.85
2022-11-19T05:25:10.483Z,15.20
2022-11-19T05:27:37.715Z,38.30
2022-11-19T05:30:05.572Z,30.48
2022-11-19T05:32:32.875Z,26.85
2022-11-19T05:35:00.093Z,11.65
2022-11-19T05:37:27.339Z,13.45
2022-11-19T05:39:54.581Z,22.65
2022-11-19T05:42:21.798Z,13.95
2022-11-19T05:44:49.185Z,17.80
2022-11-19T05:47:17.017Z,14.88
2022-11-19T05:49:44.275Z,14.43
2022-11-19T05:52:11.900Z,18.90
2022-11-19T05:54:39.151Z,16.17
2022-11-19T05:57:06.500Z,23.20
2022-11-19T05:59:33.948Z,11.57
2022-11-19T06:02:01.234Z,17.70
2022-11-19T06:04:28.430Z,13.23
2022-11-19T06:06:56.596Z,21.98
2022-11-19T06:09:23.857Z,18.45
2022-11-19T06:11:51.190Z,14.80
2022-11-19T06:14:23.836Z,18.88
2022-11-19T06:16:55.992Z,13.55
2022-11-19T06:19:24.498Z,22.77
2022-11-19T06:21:52.819Z,9.63
2022-11-19T06:24:20.759Z,19.23
2022-11-19T06:26:48.087Z,9.95
2022-11-19T06:29:17.578Z,16.00
2022-11-19T06:31:45.900Z,11.25
2022-11-19T06:34:13.308Z,13.65
2022-11-19T06:36:44.949Z,14.95
2022-11-19T06:39:15.062Z,14.70
2022-11-19T06:41:42.329Z,15.23
2022-11-19T06:44:09.572Z,12.50
2022-11-19T06:46:36.834Z,26.15
2022-11-19T06:49:05.770Z,24.67
2022-11-19T06:51:33.723Z,11.75
2022-11-19T06:54:01.033Z,15.68
2022-11-19T06:56:28.259Z,9.45
2022-11-19T06:58:58.181Z,15.15
2022-11-19T07:01:25.536Z,13.25
2022-11-19T07:03:52.817Z,29.13
2022-11-19T07:06:20.067Z,15.50
2022-11-19T07:08:47.316Z,8.38
2022-11-19T07:11:27.082Z,11.32
2022-11-19T07:13:58.388Z,20.08
2022-11-19T07:16:28.052Z,14.90
2022-11-19T07:18:57.642Z,20.42
2022-11-19T07:21:25.062Z,15.32
2022-11-19T07:23:52.505Z,16.48
2022-11-19T07:26:19.816Z,15.63
2022-11-19T07:28:47.171Z,15.93
2022-11-19T07:31:14.595Z,19.25
2022-11-19T07:33:41.932Z,13.80
2022-11-19T07:36:16.824Z,12.82
2022-11-19T07:38:45.871Z,12.47
2022-11-19T07:41:32.171Z,16.10
2022-11-19T07:43:59.376Z,24.38
2022-11-19T07:46:26.650Z,11.82
2022-11-19T07:48:55.148Z,10.95
2022-11-19T07:51:23.697Z,7.68
2022-11-19T07:53:50.961Z,12.57
2022-11-19T07:56:19.101Z,16.33
2022-11-19T07:58:46.501Z,13.98
2022-11-19T08:01:23.214Z,22.85
2022-11-19T08:03:56.078Z,12.05
2022-11-19T08:06:26.404Z,18.27
2022-11-19T08:08:56.081Z,8.05
2022-11-19T08:11:24.277Z,29.10
2022-11-19T08:13:52.409Z,16.77
2022-11-19T08:16:38.882Z,31.48
2022-11-19T08:19:15.084Z,18.83
2022-11-19T08:21:46.397Z,24.50
2022-11-19T08:24:15.409Z,14.10
2022-11-19T08:26:43.634Z,13.68
2022-11-19T08:29:16.197Z,11.68
2022-11-19T08:31:45.794Z,14.07
2022-11-19T08:34:13.142Z,10.55
2022-11-19T08:36:40.679Z,11.40
2022-11-19T08:39:08.269Z,21.90
2022-11-19T08:41:54.033Z,10.10
2022-11-19T08:44:21.976Z,22.98
2022-11-19T08:46:50.555Z,14.10
2022-11-19T08:49:18.081Z,18.30
2022-11-19T08:51:45.351Z,17.73
2022-11-19T08:54:13.257Z,15.32
2022-11-19T08:56:40.852Z,12.55
2022-11-19T08:59:08.369Z,17.33
2022-11-19T09:01:36.272Z,14.82
2022-11-19T09:04:03.695Z,18.17
2022-11-19T09:06:33.554Z,15.77
2022-11-19T09:09:01.699Z,27.77
2022-11-19T09:11:29.045Z,23.05
2022-11-19T09:13:57.932Z,10.07
2022-11-19T09:16:25.432Z,9.15
2022-11-19T09:18:52.791Z,19.48
2022-11-19T09:21:20.068Z,14.27
2022-11-19T09:23:47.330Z,17.40
2022-11-19T09:26:17.694Z,9.35
2022-11-19T09:28:45.132Z,20.25
2022-11-19T09:31:16.576Z,17.55
2022-11-19T09:33:47.142Z,19.30
2022-11-19T09:36:14.995Z,22.33
2022-11-19T09:38:42.644Z,20.02
2022-11-19T09:41:34.743Z,19.08
2022-11-19T09:44:18.944Z,18.80
2022-11-19T09:47:16.650Z,12.77
2022-11-19T09:49:59.758Z,14.15
2022-11-19T09:52:33.795Z,13.52
2022-11-19T09:55:02.420Z,14.20
2022-11-19T09:57:39.313Z,19.73
2022-11-19T10:00:08.964Z,15.45
2022-11-19T10:02:39.301Z,13.32
2022-11-19T10:05:07.410Z,12.38
2022-11-19T10:07:53.979Z,15.48
2022-11-19T10:10:36.343Z,10.93
2022-11-19T10:13:41.352Z,7.43
2022-11-19T10:16:08.580Z,15.38
2022-11-19T10:19:00.050Z,21.55
2022-11-19T10:21:44.187Z,14.07
2022-11-19T10:24:38.771Z,19.17
2022-11-19T10:27:39.244Z,13.05
2022-11-19T10:30:14.600Z,10.30
2022-11-19T10:33:01.816Z,8.73
2022-11-19T10:35:49.882Z,10.50
2022-11-19T10:38:23.607Z,16.48
2022-11-19T10:40:59.581Z,20.67
2022-11-19T10:43:50.671Z,12.73
2022-11-19T10:46:23.462Z,17.23
2022-11-19T10:48:58.837Z,18.35
2022-11-19T10:51:33.716Z,20.33
2022-11-19T10:54:05.678Z,17.50
2022-11-19T10:56:43.136Z,18.00
2022-11-19T10:59:18.921Z,11.45
2022-11-19T11:01:50.779Z,8.80
2022-11-19T11:04:26.655Z,20.08
2022-11-19T11:07:05.087Z,12.80
2022-11-19T11:09:43.225Z,26.20
2022-11-19T11:12:34.909Z,23.33
2022-11-19T11:15:18.970Z,21.35
2022-11-19T11:17:47.625Z,13.25
2022-11-19T11:20:18.281Z,14.70
2022-11-19T11:23:02.051Z,19.10
2022-11-19T11:25:29.947Z,12.50
2022-11-19T11:28:27.077Z,12.25
2022-11-19T11:30:58.849Z,13.48
2022-11-19T11:33:36.197Z,10.88
2022-11-19T11:36:13.044Z,17.25
2022-11-19T11:38:45.654Z,15.10
2022-11-19T11:44:20.698Z,14.82
2022-11-19T11:46:49.556Z,12.90
2022-11-19T11:49:26.274Z,15.02
2022-11-19T11:52:14.891Z,23.52
2022-11-19T11:55:02.479Z,12.77
2022-11-19T11:57:50.176Z,13.93
2022-11-19T12:00:36.350Z,7.90
2022-11-19T12:03:08.741Z,14.30
2022-11-19T12:05:55.374Z,10.52
2022-11-19T12:08:26.898Z,7.32
2022-11-19T12:11:32.155Z,11.05
2022-11-19T12:14:12.848Z,12.48
2022-11-19T12:16:53.509Z,7.07
2022-11-19T12:19:45.331Z,16.65
2022-11-19T12:22:33.194Z,11.38
2022-11-19T12:27:53.979Z,12.15
2022-11-19T12:30:24.247Z,8.02
2022-11-19T12:33:16.776Z,10.57
2022-11-19T12:36:02.442Z,9.05
2022-11-19T12:38:46.384Z,7.80
2022-11-19T12:41:47.230Z,17.48
2022-11-19T12:45:08.360Z,10.63
2022-11-19T12:47:51.096Z,10.30
2022-11-19T12:50:31.428Z,12.30
2022-11-19T12:53:17.117Z,14.07
2022-11-19T12:55:53.143Z,8.85
2022-11-19T12:58:32.637Z,7.95
2022-11-19T13:01:06.006Z,9.43
2022-11-19T13:04:11.306Z,9.88
2022-11-19T13:06:43.000Z,9.85
2022-11-19T13:09:24.989Z,10.48
2022-11-19T13:12:00.353Z,19.80
2022-11-19T13:14:39.454Z,6.03
2022-11-19T13:17:21.162Z,15.25
2022-11-19T13:20:01.173Z,9.15
2022-11-19T13:22:39.843Z,7.25
2022-11-19T13:25:24.077Z,7.53
2022-11-19T13:27:54.599Z,14.55
2022-11-19T13:30:26.596Z,4.97
2022-11-19T13:33:15.605Z,9.00
2022-11-19T13:36:00.181Z,9.90
2022-11-19T13:38:44.568Z,19.15
2022-11-19T13:41:22.378Z,8.65
2022-11-19T13:44:08.554Z,5.65
2022-11-19T13:46:54.909Z,14.27
2022-11-19T13:49:32.680Z,12.00
2022-11-19T13:52:15.432Z,10.30
2022-11-19T13:54:43.771Z,13.23
2022-11-19T13:57:43.852Z,14.70
2022-11-19T14:00:28.519Z,15.20
2022-11-19T14:03:08.072Z,14.85
2022-11-19T14:05:44.521Z,4.90
2022-11-19T14:08:33.666Z,9.93
2022-11-19T14:11:09.901Z,17.20
2022-11-19T14:14:04.563Z,14.38
2022-11-19T14:16:59.618Z,6.70
2022-11-19T14:19:45.588Z,10.52
2022-11-19T14:22:53.036Z,7.55
2022-11-19T14:25:57.872Z,16.63
2022-11-19T14:28:46.546Z,13.13
2022-11-19T14:31:15.949Z,5.05
2022-11-19T14:34:01.583Z,14.75
2022-11-19T14:36:47.411Z,10.88
2022-11-19T14:39:18.973Z,8.70
2022-11-19T14:41:46.666Z,8.63
2022-11-19T14:44:32.941Z,8.63
2022-11-19T14:47:22.366Z,15.38
2022-11-19T14:49:51.816Z,11.80
2022-11-19T14:52:23.720Z,11.10
2022-11-19T14:54:57.768Z,7.03
2022-11-19T14:57:40.720Z,9.73
2022-11-19T15:00:37.844Z,8.45
2022-11-19T15:03:12.279Z,12.55
2022-11-19T15:05:43.020Z,7.25
2022-11-19T15:08:22.678Z,10.35
2022-11-19T15:11:25.419Z,6.85
2022-11-19T15:14:34.272Z,12.77
2022-11-19T15:17:10.213Z,7.53
2022-11-19T15:20:03.140Z,16.02
2022-11-19T15:22:46.645Z,8.48
2022-11-19T15:25:30.227Z,7.35
2022-11-19T15:28:04.286Z,5.20
2022-11-19T15:30:47.168Z,10.82
2022-11-19T15:33:35.037Z,14.20
2022-11-19T15:39:16.368Z,7.47
2022-11-19T15:42:06.676Z,8.70
2022-11-19T15:44:43.707Z,18.58
2022-11-19T15:49:42.937Z,18.50
2022-11-19T15:52:16.085Z,23.02
2022-11-19T15:54:45.546Z,13.65
2022-11-19T15:57:26.532Z,11.60
2022-11-19T16:00:02.137Z,17.80
2022-11-19T16:02:42.703Z,13.15
2022-11-19T16:05:25.868Z,20.67
2022-11-19T16:07:54.396Z,22.88
2022-11-19T16:10:29.575Z,9.40
2022-11-19T16:13:18.219Z,17.13
2022-11-19T16:16:12.366Z,21.83
2022-11-19T16:18:47.524Z,29.92
2022-11-19T16:21:20.630Z,16.50
2022-11-19T16:24:07.291Z,21.38
2022-11-19T16:26:40.218Z,30.15
2022-11-19T16:29:15.135Z,25.27
2022-11-19T16:31:43.384Z,28.42
2022-11-19T16:34:25.203Z,20.35
2022-11-19T16:36:53.130Z,15.80
2022-11-19T16:39:29.279Z,29.58
2022-11-19T16:42:18.460Z,16.83
2022-11-19T16:44:51.136Z,18.15
2022-11-19T16:47:29.008Z,22.15
2022-11-19T16:50:17.099Z,16.90
2022-11-19T16:52:44.424Z,29.42
2022-11-19T16:55:24.251Z,29.38
2022-11-19T16:57:59.405Z,17.75
2022-11-19T17:00:37.971Z,13.63
2022-11-19T17:03:34.465Z,18.20
2022-11-19T17:06:04.124Z,19.55
2022-11-19T17:08:33.843Z,10.05
2022-11-19T17:11:33.450Z,16.45
2022-11-19T17:14:12.794Z,16.38
2022-11-19T17:16:44.601Z,19.48
2022-11-19T17:19:20.878Z,18.90
2022-11-19T17:21:59.565Z,18.53
2022-11-19T17:24:41.241Z,28.92
2022-11-19T17:27:23.532Z,16.45
2022-11-19T17:29:55.837Z,24.30
2022-11-19T17:32:23.304Z,21.95
2022-11-19T17:34:55.110Z,30.15
2022-11-19T17:37:22.401Z,26.55
2022-11-19T17:39:49.690Z,19.65
2022-11-19T17:42:36.070Z,18.88
2022-11-19T17:45:10.451Z,29.75
2022-11-19T17:47:38.211Z,25.15
2022-11-19T17:50:06.103Z,18.38
2022-11-19T17:52:33.480Z,30.05
2022-11-19T17:55:19.647Z,18.20
2022-11-19T17:57:46.906Z,21.27
2022-11-19T18:00:15.364Z,23.92
2022-11-19T18:02:42.631Z,35.97
2022-11-19T18:05:19.995Z,21.58
2022-11-19T18:07:47.283Z,27.63
2022-11-19T18:10:14.680Z,40.90
2022-11-19T18:12:41.916Z,26.85
2022-11-19T18:15:16.157Z,22.40
2022-11-19T18:17:43.729Z,29.60
2022-11-19T18:20:11.590Z,36.58
2022-11-19T18:22:39.274Z,35.88
2022-11-19T18:25:17.689Z,35.97
2022-11-19T18:27:45.704Z,24.83
2022-11-19T18:30:13.686Z,35.20
2022-11-19T18:32:41.255Z,28.58
2022-11-19T18:35:16.623Z,42.65
2022-11-19T18:37:44.391Z,40.28
2022-11-19T18:40:15.636Z,42.28
2022-11-19T18:43:03.397Z,33.50
2022-11-19T18:47:58.635Z,26.85
2022-11-19T18:50:29.854Z,30.98
2022-11-19T18:52:57.797Z,45.15
2022-11-19T18:55:25.227Z,21.88
2022-11-19T18:57:52.497Z,34.10
2022-11-19T19:00:20.112Z,24.67
2022-11-19T19:02:47.552Z,35.90
2022-11-19T19:05:14.951Z,32.53
2022-11-19T19:07:42.549Z,21.00
2022-11-19T19:10:10.692Z,35.20
2022-11-19T19:12:37.956Z,27.52
2022-11-19T19:15:05.696Z,27.25
2022-11-19T19:17:32.991Z,42.03
2022-11-19T19:20:00.374Z,30.23
2022-11-19T19:22:29.262Z,27.45
2022-11-19T19:24:58.365Z,29.33
2022-11-19T19:27:26.331Z,28.35
2022-11-19T19:29:53.937Z,37.95
2022-11-19T19:32:21.411Z,26.80
2022-11-19T19:34:49.018Z,24.83
2022-11-19T19:37:16.468Z,24.75
2022-11-19T19:39:43.807Z,28.58
2022-11-19T19:42:11.288Z,33.05
2022-11-19T19:44:38.819Z,28.42
2022-11-19T19:47:06.509Z,35.22
2022-11-19T19:49:38.639Z,40.33
2022-11-19T19:52:06.420Z,33.42
2022-11-19T19:54:34.029Z,41.00
2022-11-19T19:57:01.335Z,37.75
2022-11-19T19:59:28.595Z,38.92
2022-11-19T20:01:56.098Z,35.40
2022-11-19T20:04:23.323Z,33.20
2022-11-19T20:06:52.565Z,39.20
2022-11-19T20:09:19.835Z,29.95
2022-11-19T20:11:47.470Z,31.85
2022-11-19T20:14:15.018Z,34.72
2022-11-19T20:16:42.628Z,35.72
2022-11-19T20:19:14.061Z,28.40
2022-11-19T20:21:41.676Z,29.67
2022-11-19T20:24:12.422Z,33.78
2022-11-19T20:26:41.021Z,33.40
2022-11-19T20:29:11.546Z,33.33
2022-11-19T20:31:38.951Z,31.05
2022-11-19T20:34:06.452Z,42.42
2022-11-19T20:36:35.490Z,36.83
2022-11-19T20:39:03.058Z,30.85
2022-11-19T20:41:49.161Z,33.75
2022-11-19T20:44:20.825Z,37.67
2022-11-19T20:46:50.734Z,33.03
2022-11-19T20:49:19.726Z,34.67
2022-11-19T20:51:47.380Z,51.33
2022-11-19T20:54:15.644Z,34.67
2022-11-19T20:56:43.089Z,42.20
2022-11-19T20:59:11.311Z,32.13
2022-11-19T21:01:38.916Z,35.80
2022-11-19T21:04:07.205Z,35.05
2022-11-19T21:06:35.008Z,31.08
2022-11-19T21:09:02.525Z,37.65
2022-11-19T21:11:29.999Z,40.78
2022-11-19T21:13:57.483Z,34.53
2022-11-19T21:16:26.216Z,38.28
2022-11-19T21:18:53.749Z,39.92
2022-11-19T21:21:24.081Z,47.78
2022-11-19T21:23:52.908Z,53.83
2022-11-19T21:26:22.955Z,42.88
2022-11-19T21:28:53.789Z,41.97
2022-11-19T21:31:37.868Z,39.97
2022-11-19T21:34:10.672Z,36.05
2022-11-19T21:36:38.554Z,51.83
2022-11-19T21:39:07.009Z,40.45
2022-11-19T21:41:35.133Z,47.90
2022-11-19T21:44:04.017Z,40.80
2022-11-19T21:46:31.895Z,34.67
2022-11-19T21:48:59.684Z,43.03
2022-11-19T21:51:27.205Z,44.83
2022-11-19T21:53:56.213Z,34.20
2022-11-19T21:56:24.847Z,33.72
2022-11-19T21:58:52.562Z,43.67
2022-11-19T22:01:20.091Z,28.38
2022-11-19T22:03:47.751Z,36.63
2022-11-19T22:06:17.345Z,42.60
2022-11-19T22:08:45.176Z,44.88
2022-11-19T22:11:31.719Z,37.67
2022-11-19T22:14:06.853Z,33.38
2022-11-19T22:16:38.338Z,45.55
2022-11-19T22:19:06.743Z,43.03
2022-11-19T22:21:34.847Z,57.95
2022-11-19T22:24:02.823Z,37.60
2022-11-19T22:26:30.445Z,37.45
2022-11-19T22:28:57.953Z,41.88
2022-11-19T22:31:26.215Z,33.30
2022-11-19T22:33:53.986Z,41.00
2022-11-19T22:36:22.622Z,47.63
2022-11-19T22:38:51.284Z,37.58
2022-11-19T22:41:20.568Z,35.30
2022-11-19T22:43:48.929Z,43.80
2022-11-19T22:46:17.720Z,37.63
2022-11-19T22:48:45.563Z,33.42
2022-11-19T22:51:15.866Z,38.00
2022-11-19T22:53:43.517Z,33.20
2022-11-19T22:56:18.516Z,29.80
2022-11-19T22:58:46.410Z,40.33
2022-11-19T23:01:18.281Z,49.95
2022-11-19T23:03:46.642Z,46.20
2022-11-19T23:06:14.060Z,47.55
2022-11-19T23:08:41.831Z,36.05
2022-11-19T23:11:09.452Z,38.45
2022-11-19T23:13:39.118Z,36.90
2022-11-19T23:16:15.738Z,33.97
2022-11-19T23:18:47.570Z,33.95
2022-11-19T23:21:23.999Z,33.33
2022-11-19T23:23:52.391Z,32.53
2022-11-19T23:26:22.280Z,29.67
2022-11-19T23:28:50.127Z,30.65
2022-11-19T23:31:20.523Z,34.33
2022-11-19T23:33:49.061Z,25.60
2022-11-19T23:36:21.567Z,30.30
2022-11-19T23:38:49.398Z,26.98
2022-11-19T23:41:18.143Z,35.47
2022-11-19T23:43:46.201Z,29.27
2022-11-19T23:46:22.835Z,36.80
2022-11-19T23:48:50.853Z,44.35
2022-11-19T23:51:21.273Z,42.15
2022-11-19T23:53:49.196Z,37.60
2022-11-19T23:56:18.139Z,47.65
2022-11-19T23:58:45.675Z,49.78
